TAF

Aerodrome Forecast TAF

TAF description (Slovak)

23.05.2017 - 14:00 UTC (Včera)

TAF LZSL 231400Z 2315/2400 21008KT 9999 FEW045TCU SCT060
    TEMPO 2315/2318 28015KT 4500 TSRA BKN030 SCT040CB
    BECMG 2318/2320 VRB02KT SCT010 BKN080
    TEMPO 2319/2400 4000 -RA BR BKN008 BKN060=
TAF LZPP 231400Z 2315/2400 22005KT 9999 SCT045
    TEMPO 2315/2318 25015G25KT 4500 TSRA BKN030 SCT040CB
    BECMG 2319/2321 VRB02KT 7000 FEW005 SCT060
    TEMPO 2319/2400 4500 BR=
TAF LZZI 231400Z 2315/2400 VRB02KT 9999 SCT045TCU BKN050
    TEMPO 2315/2317 26015G30KT 4000 TSRA BKN020 SCT040CB
    BECMG 2318/2320 7000 BKN015
    PROB30 TEMPO 2320/2400 2500 BCFG BKN003=

23.05.2017 - 05:00 UTC (Včera)

TAF LZIB 230500Z 2306/2406 05003KT CAVOK
    BECMG 2307/2309 31006KT 9999 FEW045 BKN080
    TEMPO 2312/2321 -SHRA SCT040CB BKN060
    PROB40 TEMPO 2313/2320 27012G25KT 5000 TSRA SCT045CB BKN070=
TAF LZKZ 230500Z 2306/2406 VRB02KT CAVOK
    BECMG 2307/2309 22004KT 9999 FEW035 BKN080
    BECMG 2309/2311 21006KT
    PROB40 TEMPO 2314/2320 TSRA SCT045CB BKN050=
TAF LZTT 230500Z 2306/2406 27004KT 9999 FEW030 BKN060
    PROB40 TEMPO 2306/2308 -SHRA SCT040CB BKN060
    PROB40 TEMPO 2312/2321 27012G25KT 5000 TSRA SCT045CB BKN070=

skok na menu ↑


skok na začiatok stránky ↑